Aviation Digital Data Service (ADDS)

Output produced by TAFs form (1313 UTC 27 March 2015)
found at http://aviationweather.gov/adds/tafs/
 
KELP 271124Z 2712/2812 VRB05KT P6SM FEW150 
     FM271900 24008KT P6SM SKC 
     FM280300 22005KT P6SM SKC